TAP675 EHAM-LPPT
Flight info
| Callsign | TAP675 |
|---|---|
| Flight time | N/A |
| Altitude | 37000 |
| Route | WOODY N872 CIV/N0442F350 N872 MEDIL/N0445F370 DCT KOVIN DCT NIDUV DCT KIHVI UN872 TERPO/N0440F350 UN872 ERIGA UZ218 FUJTI/N0448F370 DCT ATLEN DCT ABUPI DCT XAMAX |
| Aircraft | A320/M-SDE3FGHIRWY/LB1 |
Departure
| Time | 2026-05-04 06:18 |
|---|---|
| Airport | Amsterdam Airport Schiphol (EHAM) |
Arrival
| Time | N/A |
|---|---|
| Airport | Lisbon Humberto Delgado Airport (LPPT) |
| Time | Latitude | Longitude | Altitude | Speed | Heading |
|---|---|---|---|---|---|
| 2026-05-04 05:47 | 52.30507 | 4.76550 | -2 ft | 0 kts | 58° |
| 2026-05-04 06:11 | 52.30503 | 4.76439 | -3 ft | 0 kts | 147° |
| 2026-05-04 06:14 | 52.30362 | 4.76593 | -3 ft | 11 kts | 137° |
| 2026-05-04 06:14 | 52.30374 | 4.76721 | -3 ft | 12 kts | 58° |
| 2026-05-04 06:15 | 52.30414 | 4.76833 | -3 ft | 10 kts | 59° |
| 2026-05-04 06:15 | 52.30448 | 4.76927 | -3 ft | 9 kts | 58° |
| 2026-05-04 06:15 | 52.30486 | 4.77023 | -3 ft | 12 kts | 57° |
| 2026-05-04 06:15 | 52.30539 | 4.77154 | -3 ft | 14 kts | 57° |
| 2026-05-04 06:16 | 52.30570 | 4.77297 | -3 ft | 13 kts | 107° |
| 2026-05-04 06:16 | 52.30496 | 4.77394 | -3 ft | 15 kts | 151° |
| 2026-05-04 06:16 | 52.30391 | 4.77385 | -6 ft | 17 kts | 204° |
| 2026-05-04 06:16 | 52.30282 | 4.77281 | -8 ft | 15 kts | 216° |
| 2026-05-04 06:17 | 52.30262 | 4.77240 | -7 ft | 0 kts | 238° |
| 2026-05-04 06:17 | 52.30199 | 4.77072 | -6 ft | 51 kts | 238° |
| 2026-05-04 06:17 | 52.29884 | 4.76262 | -6 ft | 115 kts | 237° |
| 2026-05-04 06:17 | 52.29357 | 4.74920 | 1 ft | 164 kts | 238° |
| 2026-05-04 06:18 | 52.28830 | 4.73486 | 318 ft | 176 kts | 238° |
| 2026-05-04 06:18 | 52.28191 | 4.71797 | 1070 ft | 174 kts | 238° |
| 2026-05-04 06:18 | 52.27531 | 4.70090 | 1607 ft | 187 kts | 238° |
| 2026-05-04 06:20 | 52.18257 | 4.73883 | 6274 ft | 244 kts | 154° |
| 2026-05-04 06:20 | 52.16679 | 4.74913 | 6960 ft | 250 kts | 167° |
| 2026-05-04 06:21 | 52.09223 | 4.77771 | 9648 ft | 284 kts | 169° |
| 2026-05-04 06:21 | 52.07285 | 4.78518 | 10345 ft | 291 kts | 169° |
| 2026-05-04 06:22 | 52.05231 | 4.79305 | 10582 ft | 315 kts | 169° |
| 2026-05-04 06:22 | 52.03043 | 4.80145 | 10981 ft | 329 kts | 169° |
| 2026-05-04 06:25 | 51.74618 | 4.62863 | 19305 ft | 358 kts | 207° |
| 2026-05-04 06:25 | 51.72369 | 4.61119 | 19848 ft | 359 kts | 207° |
| 2026-05-04 06:26 | 51.70112 | 4.59365 | 20397 ft | 360 kts | 207° |
| 2026-05-04 06:26 | 51.67853 | 4.57611 | 20945 ft | 361 kts | 207° |
| 2026-05-04 06:26 | 51.65586 | 4.55855 | 21485 ft | 362 kts | 207° |
| 2026-05-04 06:26 | 51.63312 | 4.54095 | 22018 ft | 363 kts | 207° |
| 2026-05-04 06:27 | 51.54130 | 4.47028 | 23993 ft | 368 kts | 207° |
| 2026-05-04 06:28 | 51.51815 | 4.45250 | 24433 ft | 369 kts | 208° |
| 2026-05-04 06:28 | 51.49488 | 4.43466 | 24845 ft | 371 kts | 208° |
| 2026-05-04 06:28 | 51.47161 | 4.41684 | 25267 ft | 370 kts | 207° |
| 2026-05-04 06:28 | 51.44831 | 4.39906 | 25690 ft | 371 kts | 207° |
| 2026-05-04 06:29 | 51.42499 | 4.38131 | 26079 ft | 372 kts | 207° |
| 2026-05-04 06:29 | 51.40155 | 4.36346 | 26453 ft | 373 kts | 207° |
| 2026-05-04 06:29 | 51.37808 | 4.34557 | 26823 ft | 375 kts | 207° |
| 2026-05-04 06:29 | 51.35446 | 4.32760 | 27199 ft | 376 kts | 207° |
| 2026-05-04 06:30 | 51.33075 | 4.30956 | 27545 ft | 378 kts | 207° |
| 2026-05-04 06:30 | 51.30695 | 4.29148 | 27902 ft | 380 kts | 207° |
| 2026-05-04 06:30 | 51.28305 | 4.27335 | 28283 ft | 381 kts | 208° |
| 2026-05-04 06:30 | 51.25902 | 4.25514 | 28631 ft | 383 kts | 208° |
| 2026-05-04 06:31 | 51.23488 | 4.23687 | 28936 ft | 385 kts | 207° |
| 2026-05-04 06:31 | 51.21065 | 4.21854 | 29254 ft | 387 kts | 207° |
| 2026-05-04 06:31 | 51.18630 | 4.20012 | 29571 ft | 388 kts | 208° |
| 2026-05-04 06:31 | 51.16165 | 4.18223 | 29887 ft | 391 kts | 204° |
| 2026-05-04 06:32 | 51.13588 | 4.16786 | 30142 ft | 393 kts | 202° |
| 2026-05-04 06:33 | 50.95281 | 4.06756 | 32099 ft | 398 kts | 202° |
| 2026-05-04 06:34 | 50.92658 | 4.05334 | 32402 ft | 398 kts | 202° |
| 2026-05-04 06:34 | 50.90038 | 4.03916 | 32706 ft | 398 kts | 202° |
| 2026-05-04 06:34 | 50.87420 | 4.02492 | 33009 ft | 397 kts | 203° |
| 2026-05-04 06:34 | 50.84831 | 4.00962 | 33313 ft | 397 kts | 205° |
| 2026-05-04 06:35 | 50.82272 | 3.99335 | 33639 ft | 396 kts | 206° |
| 2026-05-04 06:36 | 50.64472 | 3.87762 | 35278 ft | 398 kts | 204° |
| 2026-05-04 06:37 | 50.61905 | 3.86142 | 35481 ft | 398 kts | 204° |
| 2026-05-04 06:37 | 50.59335 | 3.84516 | 35686 ft | 399 kts | 204° |
| 2026-05-04 06:37 | 50.56760 | 3.82878 | 35855 ft | 399 kts | 204° |
| 2026-05-04 06:37 | 50.54191 | 3.81190 | 36046 ft | 399 kts | 205° |
| 2026-05-04 06:38 | 50.51640 | 3.79451 | 36224 ft | 400 kts | 205° |
| 2026-05-04 06:38 | 50.49090 | 3.77681 | 36403 ft | 400 kts | 205° |
| 2026-05-04 06:40 | 50.31973 | 3.65979 | 36977 ft | 406 kts | 204° |
| 2026-05-04 06:40 | 50.29380 | 3.64228 | 36977 ft | 406 kts | 204° |
| 2026-05-04 06:40 | 50.24191 | 3.60729 | 36978 ft | 406 kts | 204° |
| 2026-05-04 06:41 | 50.18998 | 3.57233 | 36977 ft | 406 kts | 204° |
| 2026-05-04 06:41 | 50.13809 | 3.53748 | 36962 ft | 406 kts | 204° |
| 2026-05-04 06:42 | 50.08644 | 3.50289 | 36978 ft | 407 kts | 204° |
| 2026-05-04 06:44 | 49.87831 | 3.36429 | 36972 ft | 407 kts | 204° |
| 2026-05-04 06:44 | 49.82619 | 3.32970 | 36971 ft | 407 kts | 204° |
| 2026-05-04 06:45 | 49.77414 | 3.29536 | 36975 ft | 407 kts | 204° |
| 2026-05-04 06:45 | 49.72198 | 3.26102 | 36976 ft | 407 kts | 204° |
| 2026-05-04 06:46 | 49.66977 | 3.22662 | 36976 ft | 407 kts | 204° |
| 2026-05-04 06:46 | 49.61765 | 3.19243 | 36974 ft | 407 kts | 204° |
| 2026-05-04 06:48 | 49.45656 | 3.02747 | 36976 ft | 410 kts | 239° |
| 2026-05-04 06:48 | 49.44251 | 2.98933 | 36975 ft | 410 kts | 238° |
| 2026-05-04 06:50 | 49.32929 | 2.68477 | 36975 ft | 410 kts | 239° |
| 2026-05-04 06:51 | 49.30227 | 2.60756 | 36974 ft | 412 kts | 240° |
| 2026-05-04 06:51 | 49.27539 | 2.52999 | 36971 ft | 412 kts | 240° |
| 2026-05-04 06:52 | 49.24828 | 2.45288 | 36977 ft | 411 kts | 239° |
| 2026-05-04 06:52 | 49.22093 | 2.37593 | 36977 ft | 411 kts | 239° |
| 2026-05-04 06:53 | 49.19336 | 2.29862 | 36975 ft | 411 kts | 239° |
| 2026-05-04 06:53 | 49.16565 | 2.22276 | 36975 ft | 411 kts | 238° |
| 2026-05-04 06:54 | 49.13736 | 2.14670 | 36974 ft | 413 kts | 238° |
| 2026-05-04 06:54 | 49.10887 | 2.07037 | 36976 ft | 414 kts | 238° |
| 2026-05-04 06:55 | 49.08271 | 1.99140 | 36975 ft | 415 kts | 243° |
| 2026-05-04 06:55 | 49.05888 | 1.91171 | 36967 ft | 415 kts | 243° |
| 2026-05-04 06:57 | 48.96227 | 1.59264 | 36972 ft | 416 kts | 243° |
| 2026-05-04 06:58 | 48.93789 | 1.51286 | 36975 ft | 416 kts | 243° |
| 2026-05-04 06:58 | 48.91345 | 1.43308 | 36974 ft | 416 kts | 243° |
| 2026-05-04 06:59 | 48.88897 | 1.35329 | 36974 ft | 416 kts | 243° |
| 2026-05-04 06:59 | 48.86443 | 1.27369 | 36973 ft | 416 kts | 243° |
| 2026-05-04 07:01 | 48.76552 | 0.95577 | 36973 ft | 416 kts | 242° |
| 2026-05-04 07:02 | 48.74015 | 0.87774 | 36972 ft | 414 kts | 237° |
| 2026-05-04 07:02 | 48.70994 | 0.80288 | 36974 ft | 414 kts | 236° |
| 2026-05-04 07:03 | 48.68001 | 0.72909 | 36971 ft | 414 kts | 236° |
| 2026-05-04 07:03 | 48.64984 | 0.65494 | 36967 ft | 414 kts | 236° |
| 2026-05-04 07:04 | 48.61972 | 0.58097 | 36972 ft | 413 kts | 236° |
| 2026-05-04 07:04 | 48.58959 | 0.50712 | 36972 ft | 413 kts | 236° |
| 2026-05-04 07:05 | 48.55941 | 0.43348 | 36970 ft | 413 kts | 236° |
| 2026-05-04 07:05 | 48.52902 | 0.35953 | 36971 ft | 416 kts | 236° |
| 2026-05-04 07:06 | 48.48320 | 0.24830 | 36969 ft | 416 kts | 236° |
| 2026-05-04 07:07 | 48.45261 | 0.17417 | 36970 ft | 417 kts | 236° |
| 2026-05-04 07:09 | 48.32666 | -0.11882 | 36971 ft | 418 kts | 231° |
| 2026-05-04 07:09 | 48.29117 | -0.18815 | 36970 ft | 418 kts | 230° |
| 2026-05-04 07:10 | 48.25588 | -0.25751 | 36968 ft | 418 kts | 231° |
| 2026-05-04 07:12 | 48.12004 | -0.52331 | 36974 ft | 418 kts | 231° |
| 2026-05-04 07:12 | 48.08434 | -0.59272 | 36973 ft | 419 kts | 230° |
| 2026-05-04 07:13 | 48.04875 | -0.66166 | 36975 ft | 419 kts | 230° |
| 2026-05-04 07:13 | 48.01336 | -0.73009 | 36973 ft | 419 kts | 230° |
| 2026-05-04 07:14 | 47.92426 | -0.90169 | 36974 ft | 421 kts | 230° |
| 2026-05-04 07:15 | 47.88798 | -0.97106 | 36975 ft | 422 kts | 230° |
| 2026-05-04 07:15 | 47.85192 | -1.04003 | 36978 ft | 422 kts | 230° |
| 2026-05-04 07:16 | 47.81610 | -1.10849 | 36978 ft | 422 kts | 230° |
| 2026-05-04 07:16 | 47.77998 | -1.17733 | 36974 ft | 420 kts | 230° |
| 2026-05-04 07:17 | 47.74397 | -1.24570 | 36972 ft | 420 kts | 230° |
| 2026-05-04 07:17 | 47.70761 | -1.31445 | 36974 ft | 421 kts | 230° |
| 2026-05-04 07:18 | 47.67156 | -1.38246 | 36979 ft | 422 kts | 230° |
| 2026-05-04 07:18 | 47.63529 | -1.45081 | 36977 ft | 422 kts | 230° |
| 2026-05-04 07:19 | 47.59890 | -1.51906 | 36980 ft | 422 kts | 229° |
| 2026-05-04 07:19 | 47.56067 | -1.58484 | 36980 ft | 420 kts | 226° |
| 2026-05-04 07:20 | 47.52104 | -1.64839 | 36981 ft | 420 kts | 226° |
| 2026-05-04 07:20 | 47.48141 | -1.71206 | 36981 ft | 420 kts | 226° |
| 2026-05-04 07:22 | 47.31812 | -1.95670 | 36975 ft | 417 kts | 211° |
| 2026-05-04 07:23 | 47.26840 | -2.00108 | 36975 ft | 418 kts | 211° |
| 2026-05-04 07:23 | 47.21872 | -2.04544 | 36975 ft | 418 kts | 211° |
| 2026-05-04 07:24 | 47.16898 | -2.08976 | 36978 ft | 418 kts | 211° |
| 2026-05-04 07:24 | 47.11918 | -2.13399 | 36979 ft | 418 kts | 211° |
| 2026-05-04 07:26 | 46.91997 | -2.31033 | 36972 ft | 418 kts | 211° |
| 2026-05-04 07:27 | 46.87014 | -2.35413 | 36963 ft | 418 kts | 211° |
| 2026-05-04 07:27 | 46.82030 | -2.39780 | 36981 ft | 418 kts | 211° |
| 2026-05-04 07:28 | 46.77052 | -2.44153 | 37001 ft | 418 kts | 211° |
| 2026-05-04 07:28 | 46.72051 | -2.48542 | 36979 ft | 420 kts | 211° |
| 2026-05-04 07:29 | 46.67035 | -2.52916 | 36987 ft | 420 kts | 210° |
| 2026-05-04 07:29 | 46.62007 | -2.57287 | 36979 ft | 420 kts | 210° |
| 2026-05-04 07:30 | 46.56989 | -2.61654 | 36986 ft | 420 kts | 211° |
| 2026-05-04 07:30 | 46.51971 | -2.66018 | 36984 ft | 420 kts | 210° |
| 2026-05-04 07:31 | 46.46949 | -2.70364 | 36979 ft | 420 kts | 210° |
| 2026-05-04 07:33 | 46.26866 | -2.87728 | 36978 ft | 421 kts | 215° |
| 2026-05-04 07:33 | 46.22341 | -2.93116 | 36981 ft | 422 kts | 219° |
| 2026-05-04 07:34 | 46.17862 | -2.98588 | 36984 ft | 422 kts | 219° |
| 2026-05-04 07:34 | 46.13377 | -3.04042 | 36988 ft | 422 kts | 219° |
| 2026-05-04 07:35 | 46.08920 | -3.09456 | 36985 ft | 421 kts | 219° |
| 2026-05-04 07:35 | 46.04434 | -3.14910 | 36983 ft | 421 kts | 219° |
| 2026-05-04 07:36 | 45.99954 | -3.20346 | 36980 ft | 422 kts | 219° |
| 2026-05-04 07:38 | 45.81948 | -3.42000 | 36985 ft | 422 kts | 219° |
| 2026-05-04 07:38 | 45.77451 | -3.47390 | 36989 ft | 422 kts | 219° |
| 2026-05-04 07:39 | 45.72947 | -3.52776 | 36991 ft | 422 kts | 219° |
| 2026-05-04 07:39 | 45.68452 | -3.58141 | 36986 ft | 424 kts | 219° |
| 2026-05-04 07:40 | 45.63919 | -3.63539 | 36987 ft | 424 kts | 219° |
| 2026-05-04 07:40 | 45.59385 | -3.68924 | 36989 ft | 424 kts | 219° |
| 2026-05-04 07:41 | 45.54841 | -3.74292 | 36997 ft | 424 kts | 219° |
| 2026-05-04 07:41 | 45.50296 | -3.79652 | 36998 ft | 424 kts | 219° |
| 2026-05-04 07:42 | 45.45759 | -3.85016 | 36994 ft | 424 kts | 219° |
| 2026-05-04 07:42 | 45.41217 | -3.90374 | 37002 ft | 425 kts | 219° |
| 2026-05-04 07:43 | 45.36650 | -3.95727 | 37000 ft | 426 kts | 219° |
| 2026-05-04 07:43 | 45.32080 | -4.01086 | 37000 ft | 426 kts | 219° |
| 2026-05-04 07:44 | 45.27510 | -4.06428 | 36999 ft | 425 kts | 219° |
| 2026-05-04 07:44 | 45.22946 | -4.11760 | 36997 ft | 425 kts | 219° |
| 2026-05-04 07:45 | 45.18383 | -4.17069 | 37003 ft | 424 kts | 219° |
| 2026-05-04 07:45 | 45.13813 | -4.22369 | 37005 ft | 424 kts | 219° |
| 2026-05-04 07:46 | 45.09244 | -4.27663 | 37002 ft | 424 kts | 219° |
| 2026-05-04 07:46 | 45.04681 | -4.32945 | 37009 ft | 424 kts | 219° |
| 2026-05-04 07:47 | 45.00119 | -4.38218 | 37001 ft | 424 kts | 219° |
| 2026-05-04 07:49 | 44.81854 | -4.59187 | 37016 ft | 423 kts | 219° |
| 2026-05-04 07:49 | 44.77277 | -4.64417 | 37009 ft | 424 kts | 219° |
| 2026-05-04 07:50 | 44.72686 | -4.69642 | 37008 ft | 424 kts | 219° |
| 2026-05-04 07:50 | 44.68869 | -4.73978 | 37014 ft | 424 kts | 219° |
| 2026-05-04 07:51 | 44.64280 | -4.79193 | 37013 ft | 424 kts | 219° |
| 2026-05-04 07:51 | 44.59689 | -4.84402 | 37010 ft | 424 kts | 219° |
| 2026-05-04 07:52 | 44.55093 | -4.89596 | 37011 ft | 424 kts | 219° |
| 2026-05-04 07:52 | 44.50478 | -4.94743 | 37007 ft | 424 kts | 215° |
| 2026-05-04 07:54 | 44.30444 | -5.12284 | 37013 ft | 425 kts | 212° |
| 2026-05-04 07:55 | 44.25436 | -5.16636 | 37027 ft | 424 kts | 212° |
| 2026-05-04 07:55 | 44.20420 | -5.20986 | 37029 ft | 424 kts | 212° |
| 2026-05-04 07:56 | 44.15408 | -5.25320 | 37026 ft | 424 kts | 212° |
| 2026-05-04 07:56 | 44.10427 | -5.29630 | 37026 ft | 424 kts | 212° |
| 2026-05-04 07:57 | 44.05417 | -5.33958 | 37037 ft | 424 kts | 212° |
| 2026-05-04 07:57 | 44.00380 | -5.38284 | 37025 ft | 426 kts | 212° |
| 2026-05-04 07:58 | 43.95339 | -5.42607 | 37032 ft | 426 kts | 212° |
| 2026-05-04 07:58 | 43.90293 | -5.46928 | 37028 ft | 426 kts | 212° |
| 2026-05-04 07:59 | 43.85253 | -5.51239 | 37036 ft | 425 kts | 212° |
| 2026-05-04 07:59 | 43.80215 | -5.55541 | 37027 ft | 425 kts | 212° |
| 2026-05-04 08:00 | 43.75179 | -5.59820 | 37036 ft | 425 kts | 212° |
| 2026-05-04 08:02 | 43.55032 | -5.76903 | 37025 ft | 426 kts | 212° |
| 2026-05-04 08:02 | 43.49971 | -5.81160 | 37028 ft | 426 kts | 212° |
| 2026-05-04 08:03 | 43.44915 | -5.85412 | 37033 ft | 425 kts | 212° |
| 2026-05-04 08:03 | 43.39866 | -5.89659 | 37033 ft | 425 kts | 212° |
| 2026-05-04 08:04 | 43.34813 | -5.93888 | 37034 ft | 425 kts | 212° |
| 2026-05-04 08:04 | 43.29761 | -5.98118 | 37035 ft | 425 kts | 212° |
| 2026-05-04 08:05 | 43.24709 | -6.02334 | 37037 ft | 425 kts | 212° |
| 2026-05-04 08:05 | 43.19656 | -6.06544 | 37041 ft | 425 kts | 212° |
| 2026-05-04 08:06 | 43.14597 | -6.10749 | 37039 ft | 426 kts | 212° |
| 2026-05-04 08:06 | 43.09527 | -6.14960 | 37035 ft | 426 kts | 213° |
| 2026-05-04 08:08 | 42.89246 | -6.31712 | 37035 ft | 425 kts | 213° |
| 2026-05-04 08:11 | 42.66451 | -6.50382 | 37044 ft | 426 kts | 213° |
| 2026-05-04 08:11 | 42.58821 | -6.56593 | 37048 ft | 426 kts | 213° |
| 2026-05-04 08:12 | 42.53743 | -6.60723 | 37046 ft | 426 kts | 212° |
| 2026-05-04 08:12 | 42.48683 | -6.64826 | 37042 ft | 426 kts | 213° |
| 2026-05-04 08:13 | 42.43563 | -6.68970 | 37046 ft | 426 kts | 213° |
| 2026-05-04 08:13 | 42.38499 | -6.73059 | 37048 ft | 426 kts | 213° |
| 2026-05-04 08:14 | 42.33401 | -6.77159 | 37049 ft | 426 kts | 213° |
| 2026-05-04 08:16 | 42.13002 | -6.93537 | 37051 ft | 427 kts | 213° |
| 2026-05-04 08:16 | 42.07896 | -6.97614 | 37051 ft | 427 kts | 213° |
| 2026-05-04 08:17 | 42.02786 | -7.01681 | 37056 ft | 427 kts | 213° |
| 2026-05-04 08:17 | 41.97695 | -7.05722 | 37035 ft | 424 kts | 213° |
| 2026-05-04 08:19 | 41.77446 | -7.21765 | 37055 ft | 423 kts | 213° |
| 2026-05-04 08:20 | 41.72372 | -7.25757 | 37043 ft | 423 kts | 213° |
| 2026-05-04 08:20 | 41.67311 | -7.29707 | 37055 ft | 424 kts | 213° |
| 2026-05-04 08:21 | 41.62198 | -7.33662 | 37061 ft | 425 kts | 213° |
| 2026-05-04 08:21 | 41.57046 | -7.37636 | 37066 ft | 425 kts | 213° |
| 2026-05-04 08:22 | 41.51960 | -7.41562 | 37056 ft | 425 kts | 213° |
| 2026-05-04 08:24 | 41.31672 | -7.57187 | 37088 ft | 424 kts | 213° |
| 2026-05-04 08:24 | 41.26569 | -7.61091 | 37084 ft | 423 kts | 213° |
| 2026-05-04 08:25 | 41.21465 | -7.64994 | 37083 ft | 423 kts | 213° |
| 2026-05-04 08:25 | 41.16369 | -7.68895 | 37088 ft | 423 kts | 213° |
| 2026-05-04 08:27 | 40.95977 | -7.84395 | 37085 ft | 422 kts | 213° |
| 2026-05-04 08:28 | 40.90882 | -7.88251 | 37089 ft | 422 kts | 213° |
| 2026-05-04 08:28 | 40.85792 | -7.92094 | 37078 ft | 421 kts | 214° |
| 2026-05-04 08:29 | 40.80699 | -7.95937 | 37105 ft | 421 kts | 214° |
| 2026-05-04 08:31 | 40.60351 | -8.11219 | 37092 ft | 420 kts | 214° |
| 2026-05-04 08:33 | 40.40874 | -8.25728 | 36612 ft | 428 kts | 214° |
| 2026-05-04 08:35 | 40.23174 | -8.38843 | 33015 ft | 406 kts | 214° |
| 2026-05-04 08:35 | 40.20728 | -8.40649 | 32522 ft | 402 kts | 214° |
| 2026-05-04 08:35 | 40.18298 | -8.42439 | 32028 ft | 399 kts | 214° |
| 2026-05-04 08:35 | 40.15893 | -8.44211 | 31544 ft | 396 kts | 215° |
| 2026-05-04 08:37 | 40.01330 | -8.53263 | 28844 ft | 392 kts | 189° |
| 2026-05-04 08:37 | 39.98569 | -8.53249 | 28534 ft | 402 kts | 181° |
| 2026-05-04 08:37 | 39.95770 | -8.53013 | 28188 ft | 402 kts | 181° |
| 2026-05-04 08:38 | 39.92987 | -8.52775 | 27829 ft | 400 kts | 181° |
| 2026-05-04 08:38 | 39.90218 | -8.52540 | 27513 ft | 398 kts | 181° |
| 2026-05-04 08:38 | 39.87467 | -8.52309 | 27176 ft | 395 kts | 181° |
| 2026-05-04 08:40 | 39.69793 | -8.56116 | 24932 ft | 357 kts | 216° |
| 2026-05-04 08:40 | 39.67670 | -8.57787 | 24632 ft | 355 kts | 216° |
| 2026-05-04 08:40 | 39.65555 | -8.59445 | 24338 ft | 354 kts | 216° |
| 2026-05-04 08:41 | 39.63452 | -8.61093 | 24040 ft | 353 kts | 216° |
| 2026-05-04 08:41 | 39.61353 | -8.62742 | 23736 ft | 351 kts | 216° |
| 2026-05-04 08:41 | 39.59264 | -8.64382 | 23418 ft | 350 kts | 216° |
| 2026-05-04 08:41 | 39.57194 | -8.66008 | 23128 ft | 348 kts | 216° |
| 2026-05-04 08:42 | 39.55124 | -8.67632 | 22833 ft | 346 kts | 216° |
| 2026-05-04 08:42 | 39.53067 | -8.69245 | 22543 ft | 345 kts | 216° |
| 2026-05-04 08:42 | 39.51020 | -8.70851 | 22253 ft | 343 kts | 216° |
| 2026-05-04 08:42 | 39.48980 | -8.72450 | 21960 ft | 342 kts | 216° |
| 2026-05-04 08:43 | 39.46971 | -8.74017 | 21682 ft | 341 kts | 216° |
| 2026-05-04 08:43 | 39.44945 | -8.75595 | 21402 ft | 339 kts | 216° |
| 2026-05-04 08:43 | 39.42935 | -8.77162 | 21104 ft | 337 kts | 216° |
| 2026-05-04 08:43 | 39.40936 | -8.78735 | 20828 ft | 334 kts | 218° |
| 2026-05-04 08:44 | 39.39160 | -8.80604 | 20558 ft | 326 kts | 230° |
| 2026-05-04 08:44 | 39.37657 | -8.82786 | 20283 ft | 323 kts | 233° |
| 2026-05-04 08:46 | 39.27407 | -8.97834 | 18410 ft | 313 kts | 232° |
| 2026-05-04 08:46 | 39.25968 | -8.99937 | 18130 ft | 311 kts | 232° |
| 2026-05-04 08:46 | 39.24537 | -9.02027 | 17860 ft | 311 kts | 232° |
| 2026-05-04 08:46 | 39.23127 | -9.04090 | 17596 ft | 310 kts | 232° |
| 2026-05-04 08:47 | 39.21689 | -9.06195 | 17329 ft | 308 kts | 232° |
| 2026-05-04 08:47 | 39.20292 | -9.08238 | 17082 ft | 307 kts | 232° |
| 2026-05-04 08:47 | 39.18876 | -9.10301 | 16822 ft | 307 kts | 232° |
| 2026-05-04 08:47 | 39.17461 | -9.12362 | 16568 ft | 307 kts | 232° |
| 2026-05-04 08:48 | 39.16048 | -9.14421 | 16308 ft | 306 kts | 232° |
| 2026-05-04 08:48 | 39.14641 | -9.16466 | 16048 ft | 305 kts | 232° |
| 2026-05-04 08:48 | 39.13236 | -9.18512 | 15796 ft | 304 kts | 232° |
| 2026-05-04 08:48 | 39.11839 | -9.20546 | 15541 ft | 303 kts | 232° |
| 2026-05-04 08:49 | 39.10441 | -9.22581 | 15290 ft | 302 kts | 232° |
| 2026-05-04 08:50 | 39.02166 | -9.34595 | 13760 ft | 297 kts | 232° |
| 2026-05-04 08:50 | 39.00812 | -9.36551 | 13504 ft | 296 kts | 232° |
| 2026-05-04 08:51 | 38.99446 | -9.38525 | 13254 ft | 295 kts | 232° |
| 2026-05-04 08:51 | 38.98081 | -9.40493 | 12993 ft | 294 kts | 231° |
| 2026-05-04 08:51 | 38.96719 | -9.42454 | 12763 ft | 293 kts | 232° |
| 2026-05-04 08:51 | 38.95348 | -9.44427 | 12519 ft | 292 kts | 232° |
| 2026-05-04 08:52 | 38.93997 | -9.46373 | 12272 ft | 291 kts | 232° |
| 2026-05-04 08:52 | 38.92668 | -9.48287 | 12038 ft | 291 kts | 232° |
| 2026-05-04 08:52 | 38.91329 | -9.50218 | 11794 ft | 288 kts | 232° |
| 2026-05-04 08:52 | 38.89998 | -9.52134 | 11677 ft | 279 kts | 231° |
| 2026-05-04 08:53 | 38.88555 | -9.53705 | 11511 ft | 275 kts | 214° |
| 2026-05-04 08:54 | 38.75249 | -9.55056 | 10041 ft | 274 kts | 184° |
| 2026-05-04 08:55 | 38.73344 | -9.55096 | 9789 ft | 273 kts | 184° |
| 2026-05-04 08:55 | 38.71446 | -9.55137 | 9553 ft | 272 kts | 184° |
| 2026-05-04 08:55 | 38.69555 | -9.55177 | 9331 ft | 271 kts | 184° |
| 2026-05-04 08:55 | 38.67672 | -9.55218 | 9108 ft | 270 kts | 184° |
| 2026-05-04 08:57 | 38.54861 | -9.54235 | 8132 ft | 259 kts | 171° |
| 2026-05-04 09:01 | 38.36123 | -9.34823 | 8134 ft | 259 kts | 104° |
| 2026-05-04 09:01 | 38.35753 | -9.32582 | 8132 ft | 259 kts | 99° |
| 2026-05-04 09:01 | 38.35402 | -9.30327 | 8130 ft | 259 kts | 100° |
| 2026-05-04 09:01 | 38.35045 | -9.28077 | 8130 ft | 259 kts | 100° |
| 2026-05-04 09:02 | 38.34686 | -9.25827 | 8130 ft | 259 kts | 100° |
| 2026-05-04 09:02 | 38.34454 | -9.23561 | 8130 ft | 257 kts | 88° |
| 2026-05-04 09:02 | 38.34674 | -9.21313 | 8130 ft | 256 kts | 76° |
| 2026-05-04 09:02 | 38.35039 | -9.19097 | 8136 ft | 255 kts | 71° |
| 2026-05-04 09:03 | 38.35844 | -9.17129 | 8134 ft | 249 kts | 45° |
| 2026-05-04 09:03 | 38.37181 | -9.15808 | 7905 ft | 241 kts | 21° |
| 2026-05-04 09:03 | 38.38780 | -9.15330 | 7562 ft | 235 kts | 358° |
| 2026-05-04 09:03 | 38.40361 | -9.15697 | 7220 ft | 231 kts | 336° |
| 2026-05-04 09:04 | 38.41716 | -9.16767 | 6882 ft | 229 kts | 322° |
| 2026-05-04 09:04 | 38.42984 | -9.17995 | 6541 ft | 229 kts | 322° |
| 2026-05-04 09:04 | 38.44252 | -9.19224 | 6192 ft | 229 kts | 323° |
| 2026-05-04 09:04 | 38.45486 | -9.20419 | 5853 ft | 227 kts | 323° |
| 2026-05-04 09:05 | 38.46740 | -9.21634 | 5520 ft | 226 kts | 323° |
| 2026-05-04 09:05 | 38.47987 | -9.22841 | 5199 ft | 224 kts | 323° |
| 2026-05-04 09:05 | 38.49226 | -9.24041 | 4882 ft | 223 kts | 322° |
| 2026-05-04 09:05 | 38.50456 | -9.25233 | 4544 ft | 222 kts | 323° |
| 2026-05-04 09:06 | 38.51835 | -9.26193 | 4155 ft | 235 kts | 342° |
| 2026-05-04 09:07 | 38.60893 | -9.22787 | 3706 ft | 180 kts | 20° |
| 2026-05-04 09:08 | 38.62059 | -9.22167 | 3484 ft | 184 kts | 20° |
| 2026-05-04 09:08 | 38.63257 | -9.21530 | 3234 ft | 189 kts | 20° |
| 2026-05-04 09:08 | 38.64486 | -9.20876 | 2973 ft | 194 kts | 20° |
| 2026-05-04 09:08 | 38.65744 | -9.20206 | 2706 ft | 197 kts | 20° |
| 2026-05-04 09:09 | 38.67015 | -9.19529 | 2430 ft | 199 kts | 20° |
| 2026-05-04 09:09 | 38.68279 | -9.18854 | 2144 ft | 194 kts | 21° |
| 2026-05-04 09:09 | 38.69487 | -9.18209 | 1901 ft | 181 kts | 19° |
| 2026-05-04 09:09 | 38.70239 | -9.17807 | 1746 ft | 171 kts | 19° |
| 2026-05-04 09:10 | 38.71289 | -9.17246 | 1514 ft | 152 kts | 19° |
| 2026-05-04 09:10 | 38.72215 | -9.16753 | 1305 ft | 138 kts | 20° |
| 2026-05-04 09:10 | 38.73090 | -9.16286 | 1116 ft | 133 kts | 19° |
| 2026-05-04 09:10 | 38.73950 | -9.15828 | 944 ft | 134 kts | 20° |
| 2026-05-04 09:11 | 38.74803 | -9.15373 | 765 ft | 135 kts | 22° |